createdAt,value
2022-12-01T00:00:06.920Z,101197.00
2022-12-01T00:02:33.422Z,101193.56
2022-12-01T00:04:59.944Z,101189.22
2022-12-01T00:07:26.426Z,101188.53
2022-12-01T00:10:11.169Z,101193.19
2022-12-01T00:12:43.358Z,101193.34
2022-12-01T00:15:13.088Z,101192.44
2022-12-01T00:17:39.536Z,101192.75
2022-12-01T00:20:07.053Z,101188.38
2022-12-01T00:22:33.529Z,101195.63
2022-12-01T00:24:59.928Z,101193.03
2022-12-01T00:27:26.331Z,101187.94
2022-12-01T00:29:52.756Z,101195.03
2022-12-01T00:32:19.131Z,101193.03
2022-12-01T00:34:45.539Z,101199.41
2022-12-01T00:37:11.947Z,101191.13
2022-12-01T00:39:38.342Z,101191.00
2022-12-01T00:42:10.046Z,101183.19
2022-12-01T00:44:39.478Z,101181.47
2022-12-01T00:47:06.134Z,101182.81
2022-12-01T00:49:32.591Z,101185.50
2022-12-01T00:51:59.231Z,101189.16
2022-12-01T00:54:25.672Z,101194.91
2022-12-01T00:56:52.137Z,101200.97
2022-12-01T00:59:18.803Z,101195.94
2022-12-01T01:01:45.341Z,101197.91
2022-12-01T01:04:11.811Z,101199.47
2022-12-01T01:06:38.313Z,101203.56
2022-12-01T01:09:04.779Z,101203.69
2022-12-01T01:11:32.855Z,101206.22
2022-12-01T01:13:59.963Z,101204.94
2022-12-01T01:16:26.942Z,101214.16
2022-12-01T01:18:53.369Z,101208.81
2022-12-01T01:21:21.732Z,101208.81
2022-12-01T01:23:49.880Z,101207.34
2022-12-01T01:26:21.663Z,101210.38
2022-12-01T01:28:49.646Z,101205.31
2022-12-01T01:31:20.974Z,101205.03
2022-12-01T01:33:47.946Z,101205.41
2022-12-01T01:36:15.787Z,101202.56
2022-12-01T01:38:42.577Z,101209.59
2022-12-01T01:41:09.980Z,101208.63
2022-12-01T01:43:48.130Z,101206.16
2022-12-01T01:46:18.035Z,101218.91
2022-12-01T01:49:10.276Z,101214.91
2022-12-01T01:51:41.361Z,101214.38
2022-12-01T01:54:37.391Z,101219.22
2022-12-01T01:57:06.759Z,101217.69
2022-12-01T01:59:41.546Z,101217.28
2022-12-01T02:02:10.861Z,101215.69
2022-12-01T02:04:51.243Z,101212.41
2022-12-01T02:07:19.275Z,101213.03
2022-12-01T02:09:46.012Z,101210.25
2022-12-01T02:12:45.947Z,101218.03
2022-12-01T02:15:29.295Z,101207.97
2022-12-01T02:18:16.670Z,101206.53
2022-12-01T02:21:25.755Z,101211.81
2022-12-01T02:24:00.918Z,101217.81
2022-12-01T02:27:02.805Z,101213.25
2022-12-01T02:29:50.841Z,101210.31
2022-12-01T02:32:32.477Z,101210.00
2022-12-01T02:34:58.819Z,101211.16
2022-12-01T02:37:43.087Z,101208.13
2022-12-01T02:40:20.330Z,101210.25
2022-12-01T02:43:02.386Z,101212.25
2022-12-01T02:45:48.334Z,101199.16
2022-12-01T02:48:20.845Z,101202.50
2022-12-01T02:50:47.980Z,101201.75
2022-12-01T02:53:18.707Z,101196.31
2022-12-01T02:55:52.953Z,101194.34
2022-12-01T02:58:19.479Z,101189.41
2022-12-01T03:01:20.568Z,101191.53
2022-12-01T03:03:55.944Z,101197.06
2022-12-01T03:07:03.895Z,101190.03
2022-12-01T03:09:48.606Z,101196.91
2022-12-01T03:12:43.252Z,101194.28
2022-12-01T03:15:19.291Z,101194.59
2022-12-01T03:18:23.166Z,101191.53
2022-12-01T03:21:02.137Z,101195.19
2022-12-01T03:23:33.651Z,101193.06
2022-12-01T03:26:03.799Z,101190.84
2022-12-01T03:28:37.883Z,101183.09
2022-12-01T03:31:08.963Z,101190.41
2022-12-01T03:33:45.903Z,101186.47
2022-12-01T03:36:23.391Z,101189.09
2022-12-01T03:38:55.883Z,101180.84
2022-12-01T03:41:28.064Z,101188.84
2022-12-01T03:44:08.586Z,101183.78
2022-12-01T03:47:00.667Z,101190.28
2022-12-01T03:49:27.996Z,101184.81
2022-12-01T03:52:07.579Z,101188.28
2022-12-01T03:54:45.383Z,101184.84
2022-12-01T03:57:17.735Z,101187.06
2022-12-01T03:59:46.032Z,101184.91
2022-12-01T04:02:12.879Z,101186.25
2022-12-01T04:04:39.411Z,101187.66
2022-12-01T04:07:05.992Z,101184.41
2022-12-01T04:09:32.395Z,101182.06
2022-12-01T04:12:17.499Z,101178.31
2022-12-01T04:14:43.916Z,101188.47
2022-12-01T04:17:10.419Z,101176.59
2022-12-01T04:19:36.864Z,101185.84
2022-12-01T04:22:03.503Z,101180.03
2022-12-01T04:24:29.964Z,101193.78
2022-12-01T04:26:56.382Z,101195.56
2022-12-01T04:29:23.304Z,101198.84
2022-12-01T04:31:49.769Z,101200.47
2022-12-01T04:34:16.255Z,101197.66
2022-12-01T04:36:42.676Z,101198.59
2022-12-01T04:39:09.072Z,101207.59
2022-12-01T04:41:35.579Z,101200.09
2022-12-01T04:44:01.963Z,101190.72
2022-12-01T04:46:28.502Z,101196.59
2022-12-01T04:48:55.038Z,101198.03
2022-12-01T04:51:22.281Z,101192.97
2022-12-01T04:53:50.176Z,101191.97
2022-12-01T04:56:16.921Z,101193.56
2022-12-01T04:58:43.397Z,101192.97
2022-12-01T05:01:15.547Z,101194.59
2022-12-01T05:03:44.469Z,101200.50
2022-12-01T05:06:12.314Z,101191.56
2022-12-01T05:08:38.959Z,101199.19
2022-12-01T05:11:08.979Z,101201.50
2022-12-01T05:13:45.071Z,101198.09
2022-12-01T05:16:15.639Z,101203.75
2022-12-01T05:18:42.737Z,101198.91
2022-12-01T05:21:11.015Z,101203.63
2022-12-01T05:23:38.667Z,101208.22
2022-12-01T05:26:07.382Z,101207.00
2022-12-01T05:28:33.781Z,101210.03
2022-12-01T05:31:00.845Z,101205.25
2022-12-01T05:33:28.428Z,101209.13
2022-12-01T05:35:55.544Z,101207.50
2022-12-01T05:38:22.369Z,101214.19
2022-12-01T05:40:53.055Z,101214.50
2022-12-01T05:43:28.692Z,101220.78
2022-12-01T05:45:56.022Z,101214.31
2022-12-01T05:48:22.890Z,101213.88
2022-12-01T05:50:49.353Z,101214.78
2022-12-01T05:53:16.472Z,101212.56
2022-12-01T05:55:42.869Z,101214.88
2022-12-01T05:58:09.590Z,101216.66
2022-12-01T06:00:40.894Z,101211.44
2022-12-01T06:03:11.694Z,101212.56
2022-12-01T06:05:38.116Z,101210.72
2022-12-01T06:08:04.578Z,101211.53
2022-12-01T06:10:30.997Z,101214.69
2022-12-01T06:12:57.412Z,101216.00
2022-12-01T06:15:23.964Z,101219.44
2022-12-01T06:17:50.620Z,101213.59
2022-12-01T06:20:17.336Z,101218.97
2022-12-01T06:22:43.719Z,101218.25
2022-12-01T06:25:10.594Z,101215.81
2022-12-01T06:27:37.060Z,101216.81
2022-12-01T06:30:05.369Z,101217.03
2022-12-01T06:32:31.875Z,101217.94
2022-12-01T06:34:58.333Z,101221.72
2022-12-01T06:37:24.751Z,101220.88
2022-12-01T06:39:51.526Z,101225.63
2022-12-01T06:42:18.148Z,101226.06
2022-12-01T06:44:44.664Z,101224.72
2022-12-01T06:47:11.042Z,101221.09
2022-12-01T06:49:38.247Z,101227.41
2022-12-01T06:52:05.366Z,101232.56
2022-12-01T06:54:31.800Z,101233.47
2022-12-01T06:56:58.802Z,101240.56
2022-12-01T06:59:26.092Z,101241.56
2022-12-01T07:01:53.032Z,101248.59
2022-12-01T07:04:19.581Z,101245.22
2022-12-01T07:06:46.066Z,101252.34
2022-12-01T07:09:12.522Z,101245.97
2022-12-01T07:11:39.201Z,101253.34
2022-12-01T07:14:05.824Z,101253.97
2022-12-01T07:16:33.786Z,101243.22
2022-12-01T07:19:00.252Z,101257.63
2022-12-01T07:21:26.727Z,101258.31
2022-12-01T07:23:54.318Z,101260.34
2022-12-01T07:26:21.871Z,101259.97
2022-12-01T07:28:48.345Z,101264.59
2022-12-01T07:31:18.205Z,101264.19
2022-12-01T07:33:45.120Z,101264.41
2022-12-01T07:36:13.276Z,101277.91
2022-12-01T07:38:40.080Z,101268.97
2022-12-01T07:41:12.315Z,101273.44
2022-12-01T07:43:39.096Z,101276.88
2022-12-01T07:46:20.402Z,101285.06
2022-12-01T07:48:48.921Z,101279.75
2022-12-01T07:51:17.185Z,101271.00
2022-12-01T07:53:49.204Z,101277.19
2022-12-01T07:56:16.529Z,101281.03
2022-12-01T07:58:42.927Z,101285.50
2022-12-01T08:01:13.288Z,101285.00
2022-12-01T08:03:40.466Z,101287.31
2022-12-01T08:06:08.136Z,101282.16
2022-12-01T08:08:38.873Z,101279.09
2022-12-01T08:11:07.840Z,101277.91
2022-12-01T08:13:34.772Z,101280.06
2022-12-01T08:16:05.912Z,101277.28
2022-12-01T08:18:35.462Z,101281.03
2022-12-01T08:21:01.901Z,101279.53
2022-12-01T08:23:28.354Z,101288.97
2022-12-01T08:25:54.935Z,101280.44
2022-12-01T08:28:21.441Z,101283.28
2022-12-01T08:30:47.977Z,101280.94
2022-12-01T08:33:14.655Z,101287.94
2022-12-01T08:35:41.133Z,101281.66
2022-12-01T08:38:07.643Z,101286.03
2022-12-01T08:40:34.122Z,101287.66
2022-12-01T08:43:00.574Z,101286.94
2022-12-01T08:45:27.061Z,101282.38
2022-12-01T08:47:58.671Z,101288.44
2022-12-01T08:50:28.500Z,101291.41
2022-12-01T08:52:55.053Z,101288.44
2022-12-01T08:55:22.292Z,101287.13
2022-12-01T08:57:48.846Z,101292.28
2022-12-01T09:00:16.155Z,101294.63
2022-12-01T09:02:42.641Z,101306.09
2022-12-01T09:05:09.387Z,101287.22
2022-12-01T09:07:35.917Z,101293.63
2022-12-01T09:10:02.587Z,101294.41
2022-12-01T09:12:29.720Z,101297.56
2022-12-01T09:14:56.184Z,101300.91
2022-12-01T09:17:23.578Z,101301.63
2022-12-01T09:19:50.394Z,101302.13
2022-12-01T09:22:17.032Z,101306.06
2022-12-01T09:24:43.454Z,101301.28
2022-12-01T09:27:10.176Z,101304.72
2022-12-01T09:29:36.721Z,101303.50
2022-12-01T09:32:03.536Z,101299.72
2022-12-01T09:34:30.096Z,101306.06
2022-12-01T09:36:58.340Z,101299.22
2022-12-01T09:39:25.449Z,101292.38
2022-12-01T09:42:13.871Z,101297.03
2022-12-01T09:44:40.349Z,101297.63
2022-12-01T09:47:13.399Z,101290.00
2022-12-01T09:50:01.938Z,101292.75
2022-12-01T09:52:33.623Z,101293.34
2022-12-01T09:55:01.349Z,101297.31
2022-12-01T09:57:36.725Z,101290.09
2022-12-01T10:00:29.029Z,101298.09
2022-12-01T10:03:23.586Z,101293.75
2022-12-01T10:06:26.205Z,101278.16
2022-12-01T10:09:04.606Z,101281.28
2022-12-01T10:11:33.702Z,101283.00
2022-12-01T10:14:00.954Z,101277.97
2022-12-01T10:16:35.615Z,101275.09
2022-12-01T10:19:08.797Z,101268.13
2022-12-01T10:21:53.929Z,101267.59
2022-12-01T10:24:35.262Z,101257.94
2022-12-01T10:27:33.646Z,101251.25
2022-12-01T10:30:12.452Z,101242.31
2022-12-01T10:32:45.850Z,101248.19
2022-12-01T10:35:17.096Z,101242.16
2022-12-01T10:37:45.303Z,101239.28
2022-12-01T10:40:14.672Z,101233.19
2022-12-01T10:42:47.348Z,101230.28
2022-12-01T10:45:18.257Z,101228.13
2022-12-01T10:48:22.871Z,101233.06
2022-12-01T10:50:52.177Z,101220.34
2022-12-01T10:53:25.278Z,101216.69
2022-12-01T10:55:59.045Z,101218.19
2022-12-01T10:58:26.357Z,101214.44
2022-12-01T11:01:01.022Z,101221.38
2022-12-01T11:03:33.539Z,101213.91
2022-12-01T11:06:02.373Z,101213.00
2022-12-01T11:08:40.073Z,101217.41
2022-12-01T11:11:22.983Z,101211.97
2022-12-01T11:13:49.495Z,101216.19
2022-12-01T11:16:34.067Z,101213.28
2022-12-01T11:19:35.121Z,101215.88
2022-12-01T11:22:12.862Z,101213.00
2022-12-01T11:24:55.124Z,101210.78
2022-12-01T11:27:25.343Z,101205.34
2022-12-01T11:29:56.927Z,101206.66
2022-12-01T11:32:27.974Z,101208.09
2022-12-01T11:35:00.919Z,101205.34
2022-12-01T11:37:33.846Z,101208.13
2022-12-01T11:40:20.507Z,101197.41
2022-12-01T11:42:52.496Z,101196.50
2022-12-01T11:45:30.911Z,101201.94
2022-12-01T11:48:24.087Z,101184.31
2022-12-01T11:51:12.370Z,101193.97
2022-12-01T11:53:41.848Z,101182.38
2022-12-01T11:56:23.796Z,101180.72
2022-12-01T11:59:13.922Z,101178.00
2022-12-01T12:01:55.553Z,101180.22
2022-12-01T12:04:24.960Z,101184.38
2022-12-01T12:07:13.394Z,101178.38
2022-12-01T12:09:53.535Z,101176.59
2022-12-01T12:12:31.756Z,101181.13
2022-12-01T12:15:16.627Z,101182.75
2022-12-01T12:17:49.002Z,101177.09
2022-12-01T12:20:27.650Z,101175.13
2022-12-01T12:23:33.218Z,101171.84
2022-12-01T12:26:41.179Z,101177.50
2022-12-01T12:29:12.347Z,101170.75
2022-12-01T12:31:55.259Z,101171.13
2022-12-01T12:34:52.598Z,101166.03
2022-12-01T12:37:26.328Z,101161.31
2022-12-01T12:40:04.785Z,101159.66
2022-12-01T12:42:59.523Z,101152.91
2022-12-01T12:46:07.262Z,101149.81
2022-12-01T12:49:03.963Z,101146.00
2022-12-01T12:51:41.232Z,101144.22
2022-12-01T12:54:31.035Z,101133.63
2022-12-01T12:57:05.938Z,101130.72
2022-12-01T12:59:51.484Z,101125.25
2022-12-01T13:02:42.361Z,101128.56
2022-12-01T13:05:19.912Z,101128.91
2022-12-01T13:08:04.512Z,101123.63
2022-12-01T13:10:47.931Z,101121.63
2022-12-01T13:13:42.996Z,101113.44
2022-12-01T13:16:18.117Z,101108.72
2022-12-01T13:18:50.383Z,101107.25
2022-12-01T13:21:20.789Z,101101.97
2022-12-01T13:23:49.149Z,101105.63
2022-12-01T13:26:18.498Z,101093.25
2022-12-01T13:28:50.234Z,101099.44
2022-12-01T13:31:18.905Z,101105.25
2022-12-01T13:33:58.913Z,101104.53
2022-12-01T13:39:18.379Z,101112.91
2022-12-01T13:41:46.074Z,101101.25
2022-12-01T13:44:29.973Z,101096.50
2022-12-01T13:47:03.829Z,101100.69
2022-12-01T13:49:39.490Z,101103.44
2022-12-01T13:52:21.143Z,101099.41
2022-12-01T13:55:07.744Z,101096.88
2022-12-01T13:57:34.323Z,101095.25
2022-12-01T14:00:00.746Z,101097.25
2022-12-01T14:02:31.670Z,101097.25
2022-12-01T14:05:23.146Z,101092.16
2022-12-01T14:07:51.308Z,101091.22
2022-12-01T14:10:31.496Z,101089.59
2022-12-01T14:13:03.466Z,101087.03
2022-12-01T14:15:34.662Z,101093.22
2022-12-01T14:18:16.112Z,101090.31
2022-12-01T14:20:47.078Z,101091.06
2022-12-01T14:23:24.393Z,101088.88
2022-12-01T14:25:59.018Z,101093.22
2022-12-01T14:29:00.670Z,101097.06
2022-12-01T14:31:33.018Z,101096.88
2022-12-01T14:34:13.158Z,101093.78
2022-12-01T14:36:46.803Z,101091.56
2022-12-01T14:39:15.833Z,101087.78
2022-12-01T14:42:00.556Z,101084.13
2022-12-01T14:44:36.291Z,101086.69
2022-12-01T14:47:13.834Z,101085.78
2022-12-01T14:50:03.248Z,101083.22
2022-12-01T14:52:39.878Z,101078.13
2022-12-01T14:55:20.701Z,101077.22
2022-12-01T14:57:50.603Z,101082.50
2022-12-01T15:00:22.558Z,101077.94
2022-12-01T15:02:55.065Z,101076.13
2022-12-01T15:05:25.045Z,101090.69
2022-12-01T15:07:58.827Z,101089.97
2022-12-01T15:10:37.081Z,101083.97
2022-12-01T15:13:19.902Z,101089.97
2022-12-01T15:16:03.827Z,101081.38
2022-12-01T15:18:36.672Z,101089.59
2022-12-01T15:21:12.352Z,101092.31
2022-12-01T15:23:56.445Z,101097.78
2022-12-01T15:26:25.376Z,101096.50
2022-12-01T15:29:19.195Z,101091.78
2022-12-01T15:31:49.127Z,101096.16
2022-12-01T15:34:19.500Z,101093.22
2022-12-01T15:36:48.197Z,101092.88
2022-12-01T15:39:30.724Z,101079.94
2022-12-01T15:41:57.464Z,101074.31
2022-12-01T15:44:35.717Z,101071.03
2022-12-01T15:47:39.403Z,101075.78
2022-12-01T15:50:07.057Z,101073.78
2022-12-01T15:52:43.759Z,101076.50
2022-12-01T15:55:27.471Z,101076.50
2022-12-01T15:57:54.520Z,101067.94
2022-12-01T16:00:22.428Z,101070.13
2022-12-01T16:02:52.533Z,101070.50
2022-12-01T16:05:23.403Z,101076.13
2022-12-01T16:08:12.549Z,101079.78
2022-12-01T16:10:37.096Z,101076.13
2022-12-01T16:13:40.773Z,101076.13
2022-12-01T16:16:30.700Z,101086.31
2022-12-01T16:19:00.177Z,101082.13
2022-12-01T16:21:27.297Z,101088.53
2022-12-01T16:24:05.649Z,101090.31
2022-12-01T16:26:33.324Z,101090.31
2022-12-01T16:28:59.917Z,101087.22
2022-12-01T16:31:27.493Z,101088.88
2022-12-01T16:34:09.836Z,101084.47
2022-12-01T16:36:49.160Z,101087.38
2022-12-01T16:39:15.904Z,101091.03
2022-12-01T16:41:47.816Z,101092.88
2022-12-01T16:44:28.621Z,101088.13
2022-12-01T16:46:55.772Z,101098.16
2022-12-01T16:49:22.382Z,101097.59
2022-12-01T16:51:55.800Z,101099.97
2022-12-01T16:54:23.441Z,101099.75
2022-12-01T16:56:49.933Z,101103.41
2022-12-01T16:59:16.320Z,101104.84
2022-12-01T17:01:42.830Z,101101.56
2022-12-01T17:04:09.355Z,101107.94
2022-12-01T17:06:36.113Z,101106.09
2022-12-01T17:09:02.553Z,101103.75
2022-12-01T17:11:28.968Z,101100.31
2022-12-01T17:13:55.479Z,101107.75
2022-12-01T17:16:22.018Z,101108.50
2022-12-01T17:18:48.680Z,101105.19
2022-12-01T17:21:15.184Z,101106.31
2022-12-01T17:23:41.651Z,101095.00
2022-12-01T17:26:13.747Z,101104.84
2022-12-01T17:28:40.459Z,101106.84
2022-12-01T17:31:08.015Z,101107.41
2022-12-01T17:33:35.665Z,101105.41
2022-12-01T17:36:07.452Z,101111.59
2022-12-01T17:38:35.933Z,101113.78
2022-12-01T17:41:11.028Z,101118.31
2022-12-01T17:43:39.081Z,101108.69
2022-12-01T17:46:08.114Z,101115.59
2022-12-01T17:48:39.208Z,101114.88
2022-12-01T17:51:06.500Z,101113.59
2022-12-01T17:53:33.206Z,101114.88
2022-12-01T17:55:59.674Z,101120.00
2022-12-01T17:58:26.129Z,101119.78
2022-12-01T18:00:53.371Z,101124.88
2022-12-01T18:03:20.929Z,101126.88
2022-12-01T18:05:58.198Z,101134.31
2022-12-01T18:08:26.709Z,101131.06
2022-12-01T18:10:53.999Z,101138.53
2022-12-01T18:13:21.530Z,101134.16
2022-12-01T18:15:48.808Z,101135.41
2022-12-01T18:18:15.520Z,101135.59
2022-12-01T18:20:43.732Z,101141.03
2022-12-01T18:23:12.637Z,101142.84
2022-12-01T18:25:40.279Z,101135.78
2022-12-01T18:28:07.848Z,101139.81
2022-12-01T18:30:34.814Z,101145.59
2022-12-01T18:33:01.426Z,101144.50
2022-12-01T18:35:31.964Z,101143.44
2022-12-01T18:37:58.799Z,101154.00
2022-12-01T18:40:25.216Z,101151.78
2022-12-01T18:42:51.620Z,101153.25
2022-12-01T18:45:21.177Z,101154.00
2022-12-01T18:47:48.292Z,101143.25
2022-12-01T18:50:14.918Z,101144.16
2022-12-01T18:52:41.486Z,101152.16
2022-12-01T18:55:08.759Z,101145.06
2022-12-01T18:57:35.485Z,101151.44
2022-12-01T19:00:04.574Z,101150.88
2022-12-01T19:02:31.093Z,101153.56
2022-12-01T19:04:57.524Z,101161.03
2022-12-01T19:07:29.375Z,101162.50
2022-12-01T19:09:56.437Z,101155.41
2022-12-01T19:12:22.905Z,101154.13
2022-12-01T19:14:49.615Z,101165.59
2022-12-01T19:17:16.234Z,101157.97
2022-12-01T19:19:42.640Z,101161.97
2022-12-01T19:22:09.121Z,101157.97
2022-12-01T19:24:35.586Z,101157.22
2022-12-01T19:27:02.114Z,101156.69
2022-12-01T19:29:28.587Z,101157.97
2022-12-01T19:31:55.370Z,101154.53
2022-12-01T19:34:22.018Z,101153.78
2022-12-01T19:36:49.771Z,101157.78
2022-12-01T19:39:16.189Z,101153.41
2022-12-01T19:41:42.597Z,101155.25
2022-12-01T19:44:09.896Z,101160.53
2022-12-01T19:46:36.392Z,101166.72
2022-12-01T19:49:03.965Z,101157.97
2022-12-01T19:51:35.028Z,101161.41
2022-12-01T19:54:02.006Z,101156.16
2022-12-01T19:56:29.006Z,101157.56
2022-12-01T19:58:57.129Z,101169.38
2022-12-01T20:01:23.632Z,101157.56
2022-12-01T20:03:52.136Z,101169.03
2022-12-01T20:06:24.126Z,101179.00
2022-12-01T20:08:52.185Z,101175.53
2022-12-01T20:11:18.887Z,101180.09
2022-12-01T20:13:46.990Z,101175.38
2022-12-01T20:16:21.799Z,101186.25
2022-12-01T20:18:48.888Z,101184.78
2022-12-01T20:21:24.264Z,101185.41
2022-12-01T20:24:05.012Z,101193.59
2022-12-01T20:26:34.291Z,101190.28
2022-12-01T20:29:07.173Z,101185.88
2022-12-01T20:31:34.663Z,101183.72
2022-12-01T20:34:08.315Z,101181.53
2022-12-01T20:36:35.519Z,101177.56
2022-12-01T20:39:03.094Z,101189.63
2022-12-01T20:41:29.576Z,101188.13
2022-12-01T20:43:55.990Z,101194.31
2022-12-01T20:46:22.451Z,101195.25
2022-12-01T20:48:48.904Z,101192.72
2022-12-01T20:51:15.711Z,101190.34
2022-12-01T20:53:54.443Z,101193.41
2022-12-01T20:56:26.415Z,101198.31
2022-12-01T20:58:52.831Z,101197.59
2022-12-01T21:01:19.281Z,101192.84
2022-12-01T21:03:46.242Z,101189.16
2022-12-01T21:06:14.802Z,101199.00
2022-12-01T21:08:43.030Z,101200.28
2022-12-01T21:12:02.352Z,101201.16
2022-12-01T21:15:10.412Z,101196.84
2022-12-01T21:17:42.543Z,101192.09
2022-12-01T21:20:29.634Z,101193.75
2022-12-01T21:23:05.873Z,101201.59
2022-12-01T21:25:33.442Z,101190.66
2022-12-01T21:28:05.375Z,101192.84
2022-12-01T21:30:32.689Z,101194.09
2022-12-01T21:33:27.336Z,101193.59
2022-12-01T21:35:55.018Z,101191.38
2022-12-01T21:38:22.242Z,101200.81
2022-12-01T21:40:48.975Z,101200.81
2022-12-01T21:43:24.338Z,101200.47
2022-12-01T21:45:57.770Z,101200.81
2022-12-01T21:48:24.503Z,101199.00
2022-12-01T21:50:59.439Z,101196.59
2022-12-01T21:53:32.236Z,101197.19
2022-12-01T21:55:58.641Z,101188.06
2022-12-01T21:58:31.008Z,101196.03
2022-12-01T22:00:58.883Z,101189.50
2022-12-01T22:03:42.979Z,101193.50
2022-12-01T22:06:28.755Z,101199.69
2022-12-01T22:08:59.620Z,101202.25
2022-12-01T22:11:28.740Z,101195.50
2022-12-01T22:14:00.157Z,101195.91
2022-12-01T22:16:35.981Z,101202.81
2022-12-01T22:19:14.482Z,101203.13
2022-12-01T22:21:49.023Z,101204.78
2022-12-01T22:24:20.714Z,101204.97
2022-12-01T22:26:49.658Z,101205.56
2022-12-01T22:29:33.482Z,101206.06
2022-12-01T22:32:29.268Z,101208.22
2022-12-01T22:34:58.737Z,101211.53
2022-12-01T22:37:38.503Z,101207.66
2022-12-01T22:40:34.111Z,101212.63
2022-12-01T22:43:26.352Z,101208.59
2022-12-01T22:46:00.159Z,101201.13
2022-12-01T22:48:39.004Z,101205.88
2022-12-01T22:51:20.456Z,101210.25
2022-12-01T22:53:48.003Z,101213.88
2022-12-01T22:56:39.551Z,101209.50
2022-12-01T22:59:16.501Z,101209.09
2022-12-01T23:01:53.939Z,101205.88
2022-12-01T23:04:28.204Z,101208.91
2022-12-01T23:07:08.440Z,101207.84
2022-12-01T23:09:41.759Z,101207.97
2022-12-01T23:12:10.849Z,101215.63
2022-12-01T23:14:44.431Z,101201.84
2022-12-01T23:17:21.885Z,101205.50
2022-12-01T23:19:53.320Z,101206.41
2022-12-01T23:22:20.296Z,101208.41
2022-12-01T23:24:46.918Z,101210.63
2022-12-01T23:27:15.929Z,101207.91
2022-12-01T23:29:42.371Z,101213.16
2022-12-01T23:32:10.332Z,101204.19
2022-12-01T23:34:36.866Z,101208.75
2022-12-01T23:37:03.531Z,101212.38
2022-12-01T23:39:32.735Z,101208.41
2022-12-01T23:41:59.539Z,101212.06
2022-12-01T23:44:47.348Z,101208.78
2022-12-01T23:47:19.868Z,101204.59
2022-12-01T23:49:48.239Z,101201.13
2022-12-01T23:52:20.912Z,101204.25
2022-12-01T23:54:48.097Z,101210.31
2022-12-01T23:57:23.644Z,101207.75
2022-12-01T23:59:54.427Z,101201.34
